CheckWX is a tool to help pilots better visualize weather data.  It is not intended as a substitute for an official pre-flight weather briefing.

12:22:24 UTC

NVSS TAF
Santo Pekoa International Airport
Luganville, Vanuatu
TAF NVSS 221000Z 2212/2312 10005KT 9999 SCT025 PROB30 INTER 2212/2218 8000 SHRA BKN018 OVC040

Mar-22@
12:00 UTC

Mar-22 @ 12:00 UTC

Mar-23@
12:00 UTC

Mar-23 @ 12:00 UTC

TAF NVSS 221000Z 2212/2312 10005KT 9999 SCT025
Wind
  • 100° at 5 KTS
Cloud Levels
  • Scattered at 2,500' AGL

Mar-22@
12:00 UTC

Mar-22 @ 12:00 UTC

Mar-22@
18:00 UTC

Mar-22 @ 18:00 UTC

PROB30 INTER 2212/2218 8000 SHRA BKN018 OVC040

Temporary - 30% Likelihood

Temporary - 30% Likelihood during this time.

Conditions
Rain
Cloud Levels
  • Broken at 1,800' AGL
  • Overcast at 4,000' AGL